Decoded Metar for PGSN (SAIPAN in MARIANA ISLANDS) (IATA:SPN) | Meteo·Mobile Aviation Weather
aviador You're here:

PGSN Decoded Metar

SAIPAN in MARIANA ISLANDS
Report Time2018-12-15 17:54:00
UTC Time2018-12-15 18:03:10
Flight Rules vfr VFR
Wind030° at 14 kt
W.Decomp.*RWY 06: 11.9 kt HW 7.4 kt LCW
RWY 07: 10.4 kt HW 9.4 kt LCW
W.Rank030° ranks 10
Current wind is above 030° avg. (8.0)
Visibility9999 m
Phenomena:N/A
Clouds:Scattered 022 Hf
Scattered 034 Hf
Expected CloudBase > 1,600 ft AGL from Temp-Dew spread
CeilingNone
Temp27°C (ISA +12)
Dew Point23°C (79% RH)
Heat Index29.6°C
QNH1009 hPa
Density Alt2,149 ft
Elevation213 ft
Report Wrong Elevation
Raw Report
PGSN 151754Z 03014KT 10SM SCT022 SCT034 27/23 A2980 RMK AO2 PK WND
03026/1655 SLP111 T02720233 10272 20267 56005 $=

Extra information for PGSN:More info

Metar Taf Metar & Taf Last 4 Metars F.Rules Stats Wind Profile Meteogram Temp Stats Airport Information Weather charts Add Link Nearby VenuesMetar ALERT Operation Metar Decoded Social comments